Time;durP1;ratioP1;P1;durP2;ratioP2;P2;SDS_P1;SDS_P2;PMS_P1;PMS_P2;Temp;Humidity;BMP_temperature;BMP_pressure;BME280_temperature;BME280_humidity;BME280_pressure;Samples;Min_cycle;Max_cycle;Signal;HPM_P1;HPM_P2
2022/03/19 00:01:23;;;;;;;10.48;5.20;;;6.00;99.90;;;;;;5079331;28;20204;-57
2022/03/19 00:03:51;;;;;;;11.77;5.40;;;6.00;99.90;;;;;;5083481;28;20201;-58
2022/03/19 00:06:18;;;;;;;11.35;4.82;;;6.00;99.90;;;;;;5080800;28;20208;-57
2022/03/19 00:08:46;;;;;;;11.75;4.88;;;5.90;99.90;;;;;;5074363;28;20207;-57
2022/03/19 00:11:13;;;;;;;8.25;5.10;;;5.90;99.90;;;;;;5073691;28;20710;-56
2022/03/19 00:13:40;;;;;;;9.48;4.45;;;5.80;99.90;;;;;;5073765;28;20239;-58
2022/03/19 00:16:07;;;;;;;6.82;4.32;;;5.80;99.90;;;;;;5073833;28;20201;-58
2022/03/19 00:18:34;;;;;;;10.18;5.05;;;5.80;99.90;;;;;;5073886;28;20209;-57
2022/03/19 00:21:03;;;;;;;14.00;5.35;;;5.70;99.90;;;;;;5074238;28;20261;-57
2022/03/19 00:23:31;;;;;;;11.38;5.03;;;5.70;99.90;;;;;;5073915;28;20287;-58
2022/03/19 00:25:58;;;;;;;6.45;4.80;;;5.60;99.90;;;;;;5076898;28;20238;-58
2022/03/19 00:28:25;;;;;;;11.18;5.43;;;5.60;99.90;;;;;;5077770;28;20201;-57
2022/03/19 00:30:52;;;;;;;10.77;4.70;;;5.60;99.90;;;;;;5077599;28;20209;-55
2022/03/19 00:33:19;;;;;;;11.75;5.60;;;5.50;99.90;;;;;;5077711;28;20201;-56
2022/03/19 00:35:46;;;;;;;10.52;5.25;;;5.50;99.90;;;;;;5076958;28;20739;-57
2022/03/19 00:38:15;;;;;;;11.45;4.80;;;5.40;99.90;;;;;;5077359;28;20211;-56
2022/03/19 00:40:43;;;;;;;11.07;5.57;;;5.40;99.90;;;;;;5077235;28;20285;-57
2022/03/19 00:43:10;;;;;;;12.10;5.82;;;5.30;99.90;;;;;;5077107;28;20196;-56
2022/03/19 00:45:37;;;;;;;11.60;5.85;;;5.30;99.90;;;;;;5076953;28;20217;-56
2022/03/19 00:48:05;;;;;;;10.98;5.70;;;5.20;99.90;;;;;;5077078;28;20205;-57
2022/03/19 00:50:32;;;;;;;13.48;5.32;;;5.20;99.90;;;;;;5082809;28;20196;-57
2022/03/19 00:52:59;;;;;;;9.10;5.57;;;5.10;99.90;;;;;;5080292;28;20205;-58
2022/03/19 00:55:28;;;;;;;11.20;5.65;;;5.10;99.90;;;;;;5077141;28;20236;-58
2022/03/19 00:57:55;;;;;;;9.50;5.30;;;5.00;99.90;;;;;;5076845;28;20235;-58
2022/03/19 01:00:25;;;;;;;13.48;6.85;;;5.00;99.90;;;;;;5080439;28;20239;-56
2022/03/19 01:02:53;;;;;;;9.07;6.20;;;4.90;99.90;;;;;;5081665;28;20197;-57
2022/03/19 01:05:21;;;;;;;15.30;6.57;;;4.90;99.90;;;;;;5082502;28;20220;-57
2022/03/19 01:07:49;;;;;;;16.55;6.20;;;4.80;99.90;;;;;;5087599;28;20197;-57
2022/03/19 01:10:19;;;;;;;8.30;5.60;;;4.80;99.90;;;;;;5087339;28;20205;-57
2022/03/19 01:12:48;;;;;;;15.50;5.45;;;4.80;99.90;;;;;;5090128;28;20201;-56
2022/03/19 01:15:16;;;;;;;15.60;6.22;;;4.70;99.90;;;;;;5091759;28;20304;-57
2022/03/19 01:17:43;;;;;;;10.25;5.60;;;4.70;99.90;;;;;;5083222;28;20211;-57
2022/03/19 01:20:12;;;;;;;10.70;5.80;;;4.60;99.90;;;;;;5077995;28;20201;-57
2022/03/19 01:22:40;;;;;;;15.90;5.40;;;4.60;99.90;;;;;;5081835;28;20235;-57
2022/03/19 01:25:09;;;;;;;14.98;5.63;;;4.60;99.90;;;;;;5078593;28;20229;-56
2022/03/19 01:27:36;;;;;;;14.02;5.90;;;4.60;99.90;;;;;;5079365;28;20583;-57
2022/03/19 01:30:07;;;;;;;14.23;6.43;;;4.50;99.90;;;;;;5079339;28;20208;-58
2022/03/19 01:32:35;;;;;;;9.73;5.72;;;4.50;99.90;;;;;;5080136;28;20201;-58
2022/03/19 01:35:02;;;;;;;10.95;5.28;;;4.50;99.90;;;;;;5081137;28;20597;-57
2022/03/19 01:37:30;;;;;;;8.93;5.20;;;4.40;99.90;;;;;;5080652;28;20559;-58
2022/03/19 01:39:57;;;;;;;11.90;4.70;;;4.40;99.90;;;;;;5080820;28;20196;-58
2022/03/19 01:42:25;;;;;;;7.88;5.03;;;4.30;99.90;;;;;;5080604;28;20205;-56
2022/03/19 01:44:53;;;;;;;11.30;5.35;;;4.30;99.90;;;;;;5081689;28;20221;-57
2022/03/19 01:47:23;;;;;;;18.33;6.10;;;4.30;99.90;;;;;;5080264;28;20573;-57
2022/03/19 01:49:50;;;;;;;10.00;5.28;;;4.30;99.90;;;;;;5078416;28;20207;-56
2022/03/19 01:52:17;;;;;;;7.68;5.30;;;4.30;99.90;;;;;;5077981;28;20702;-57
2022/03/19 01:54:47;;;;;;;11.45;5.47;;;4.30;99.90;;;;;;5076971;28;20693;-57
2022/03/19 01:57:20;;;;;;;15.18;5.97;;;4.30;99.90;;;;;;5079879;28;20197;-57
2022/03/19 01:59:48;;;;;;;13.45;5.65;;;4.30;99.90;;;;;;5078572;28;20200;-57
2022/03/19 02:02:15;;;;;;;12.35;5.63;;;4.30;99.90;;;;;;5078448;28;20204;-57
2022/03/19 02:04:44;;;;;;;11.82;5.95;;;4.30;99.90;;;;;;5078055;28;20225;-57
2022/03/19 02:07:12;;;;;;;12.30;6.63;;;4.30;99.90;;;;;;5078666;28;20201;-56
2022/03/19 02:09:40;;;;;;;10.68;5.03;;;4.20;99.90;;;;;;5077634;28;20201;-57
2022/03/19 02:12:08;;;;;;;13.20;5.68;;;4.20;99.90;;;;;;5077327;28;20569;-57
2022/03/19 02:14:36;;;;;;;17.95;5.72;;;4.20;99.90;;;;;;5077602;28;20590;-58
2022/03/19 02:17:05;;;;;;;15.20;6.72;;;4.10;99.90;;;;;;5077089;28;20216;-56
2022/03/19 02:19:32;;;;;;;12.10;6.07;;;4.10;99.90;;;;;;5076517;28;20201;-56
2022/03/19 02:22:01;;;;;;;13.32;5.75;;;4.00;99.90;;;;;;5076621;28;20201;-58
2022/03/19 02:27:11;;;;;;;18.95;6.35;;;4.00;99.90;;;;;;5042409;28;20200;-57
2022/03/19 02:29:38;;;;;;;18.17;5.93;;;4.00;99.90;;;;;;5075659;28;20205;-56
2022/03/19 02:32:07;;;;;;;13.23;5.90;;;4.00;99.90;;;;;;5075334;28;20700;-56
2022/03/19 02:34:34;;;;;;;11.80;5.60;;;3.90;99.90;;;;;;5075278;28;20243;-56
2022/03/19 02:37:02;;;;;;;15.48;5.78;;;3.90;99.90;;;;;;5075376;28;20242;-55
2022/03/19 02:39:31;;;;;;;8.48;5.70;;;3.80;99.90;;;;;;5075318;28;20212;-57
2022/03/19 02:42:01;;;;;;;12.70;5.70;;;3.80;99.90;;;;;;5075001;28;20212;-57
2022/03/19 02:44:28;;;;;;;13.95;6.38;;;3.80;99.90;;;;;;5074695;28;20213;-57
2022/03/19 02:46:57;;;;;;;11.80;6.05;;;3.70;99.90;;;;;;5074651;28;20668;-55
2022/03/19 02:49:25;;;;;;;16.67;6.25;;;3.70;99.90;;;;;;5074332;28;20673;-57
2022/03/19 02:51:54;;;;;;;22.33;7.05;;;3.70;99.90;;;;;;5076308;28;20212;-58
2022/03/19 02:54:22;;;;;;;9.02;5.80;;;3.70;99.90;;;;;;5076112;28;20220;-57
2022/03/19 02:56:52;;;;;;;17.30;6.28;;;3.60;99.90;;;;;;5077839;28;20573;-57
2022/03/19 02:59:20;;;;;;;15.98;6.45;;;3.60;99.90;;;;;;5085580;28;20227;-57
2022/03/19 03:01:49;;;;;;;16.80;5.15;;;3.60;99.90;;;;;;5089540;28;20201;-56
2022/03/19 03:04:16;;;;;;;15.32;6.45;;;3.50;99.90;;;;;;5086113;28;20275;-57
2022/03/19 03:06:44;;;;;;;12.88;7.75;;;3.50;99.90;;;;;;5081309;28;20204;-57
2022/03/19 03:09:12;;;;;;;11.25;6.18;;;3.40;99.90;;;;;;5086819;28;20200;-56
2022/03/19 03:11:40;;;;;;;10.75;5.68;;;3.40;99.90;;;;;;5091370;28;20212;-57
2022/03/19 03:14:10;;;;;;;12.50;5.97;;;3.40;99.90;;;;;;5089061;28;20221;-57
2022/03/19 03:16:40;;;;;;;13.38;6.57;;;3.40;99.90;;;;;;5085590;28;20273;-56
2022/03/19 03:19:11;;;;;;;12.60;7.47;;;3.30;99.90;;;;;;5082164;28;20209;-57
2022/03/19 03:21:39;;;;;;;10.00;6.43;;;3.30;99.90;;;;;;5079688;28;20190;-57
2022/03/19 03:24:07;;;;;;;13.27;6.65;;;3.30;99.90;;;;;;5079048;28;20232;-57
2022/03/19 03:26:35;;;;;;;18.95;6.47;;;3.20;99.90;;;;;;5078639;28;20216;-56
2022/03/19 03:29:02;;;;;;;13.50;5.82;;;3.20;99.90;;;;;;5079129;28;20205;-57
2022/03/19 03:31:30;;;;;;;12.02;6.20;;;3.20;99.90;;;;;;5078578;28;20205;-56
2022/03/19 03:33:57;;;;;;;20.80;6.30;;;3.10;99.90;;;;;;5080174;28;20201;-57
2022/03/19 03:36:25;;;;;;;15.40;6.22;;;3.10;99.90;;;;;;5079468;28;20221;-57
2022/03/19 03:38:52;;;;;;;14.05;5.90;;;3.10;99.90;;;;;;5079286;28;20201;-56
2022/03/19 03:41:19;;;;;;;17.48;6.25;;;3.00;99.90;;;;;;5078310;28;20197;-58
2022/03/19 03:43:46;;;;;;;16.88;5.82;;;3.00;99.90;;;;;;5080296;28;20212;-55
2022/03/19 03:46:14;;;;;;;10.40;6.00;;;3.00;99.90;;;;;;5079740;28;20197;-57
2022/03/19 03:48:42;;;;;;;15.38;6.53;;;2.90;99.90;;;;;;5081710;28;20386;-57
2022/03/19 03:51:12;;;;;;;10.40;6.78;;;2.90;99.90;;;;;;5081502;28;20208;-56
2022/03/19 03:53:39;;;;;;;11.93;6.78;;;2.90;99.90;;;;;;5080828;28;20201;-57
2022/03/19 03:56:08;;;;;;;13.80;6.60;;;2.90;99.90;;;;;;5081882;28;20316;-57
2022/03/19 03:58:35;;;;;;;13.30;6.55;;;2.90;99.90;;;;;;5080125;28;20200;-57
2022/03/19 04:01:02;;;;;;;9.90;7.05;;;2.80;99.90;;;;;;5078833;28;20205;-57
2022/03/19 04:03:30;;;;;;;21.42;7.50;;;2.80;99.90;;;;;;5079013;28;20199;-56
2022/03/19 04:09:30;;;;;;;17.88;10.18;;;2.80;99.90;;;;;;5120025;27;20572;-57
2022/03/19 04:11:57;;;;;;;17.50;10.00;;;2.70;99.90;;;;;;5118845;28;20565;-57
2022/03/19 04:14:24;;;;;;;20.55;11.32;;;2.70;99.90;;;;;;5120770;28;20698;-56
2022/03/19 04:16:51;;;;;;;20.90;10.70;;;2.70;99.90;;;;;;5125001;28;20200;-57
2022/03/19 04:19:18;;;;;;;27.52;10.80;;;2.70;99.90;;;;;;5119508;28;20200;-57
2022/03/19 04:21:46;;;;;;;18.90;10.02;;;2.70;99.90;;;;;;5117152;28;20211;-56
2022/03/19 04:24:13;;;;;;;34.85;10.38;;;2.70;99.90;;;;;;5114466;28;20224;-57
2022/03/19 04:26:41;;;;;;;19.92;10.02;;;2.70;99.90;;;;;;5114907;28;20210;-57
2022/03/19 04:29:08;;;;;;;27.30;9.70;;;2.70;99.90;;;;;;5118645;28;20242;-57
2022/03/19 04:31:35;;;;;;;13.98;10.10;;;2.70;99.90;;;;;;5115089;28;20608;-58
2022/03/19 04:34:02;;;;;;;11.60;6.85;;;2.60;99.90;;;;;;5113426;28;20215;-57
2022/03/19 04:36:32;;;;;;;20.35;9.00;;;2.60;99.90;;;;;;5112918;28;20200;-56
2022/03/19 04:38:59;;;;;;;12.07;6.50;;;2.60;99.90;;;;;;5112382;28;20199;-58
2022/03/19 04:41:27;;;;;;;16.58;7.97;;;2.50;99.90;;;;;;5115695;28;20211;-58
2022/03/19 04:43:56;;;;;;;18.75;7.15;;;2.50;99.90;;;;;;5114306;28;20199;-56
2022/03/19 04:46:23;;;;;;;16.23;7.47;;;2.40;99.90;;;;;;5113600;28;20207;-57
2022/03/19 04:48:50;;;;;;;14.00;6.97;;;2.40;99.90;;;;;;5113374;28;20224;-57
2022/03/19 04:51:19;;;;;;;16.73;8.13;;;2.40;99.90;;;;;;5113021;28;20557;-58
2022/03/19 04:53:50;;;;;;;13.70;7.40;;;2.40;99.90;;;;;;5112394;28;20573;-57
2022/03/19 04:56:18;;;;;;;26.25;8.52;;;2.40;99.90;;;;;;5111639;28;20215;-57
2022/03/19 04:58:45;;;;;;;17.48;6.18;;;2.40;99.90;;;;;;5111242;28;20200;-57
2022/03/19 05:01:14;;;;;;;10.00;6.75;;;2.40;99.90;;;;;;5110827;28;20557;-57
2022/03/19 05:03:41;;;;;;;19.20;7.40;;;2.30;99.90;;;;;;5111279;28;20196;-55
2022/03/19 05:06:08;;;;;;;18.23;7.38;;;2.30;99.90;;;;;;5110973;28;20287;-56
2022/03/19 05:08:35;;;;;;;19.27;8.77;;;2.20;99.90;;;;;;5110489;28;20235;-58
2022/03/19 05:11:13;;;;;;;16.52;7.05;;;2.20;99.90;;;;;;5110839;28;20207;-56
2022/03/19 05:13:41;;;;;;;13.48;8.05;;;2.20;99.90;;;;;;5110494;28;20549;-56
2022/03/19 05:16:08;;;;;;;13.45;7.90;;;2.20;99.90;;;;;;5110767;28;20211;-56
2022/03/19 05:18:36;;;;;;;14.13;7.30;;;2.10;99.90;;;;;;5109949;28;20200;-57
2022/03/19 05:21:03;;;;;;;17.10;7.90;;;2.10;99.90;;;;;;5096868;28;20208;-57
2022/03/19 05:23:31;;;;;;;15.13;8.00;;;2.10;99.90;;;;;;5097480;28;20200;-55
2022/03/19 05:25:58;;;;;;;13.38;7.47;;;2.10;99.90;;;;;;5096745;28;20225;-56
2022/03/19 05:28:25;;;;;;;16.50;8.85;;;2.10;99.90;;;;;;5096635;28;20248;-58
2022/03/19 05:30:53;;;;;;;14.38;7.68;;;2.10;99.90;;;;;;5102329;28;20295;-57
2022/03/19 05:34:29;;;;;;;25.13;9.30;;;2.10;99.90;;;;;;5104005;28;20227;-57
2022/03/19 05:36:10;;;;;;;16.85;8.65;;;2.10;99.90;;;;;;5096626;28;20207;-57
2022/03/19 05:38:37;;;;;;;20.95;9.98;;;2.10;99.90;;;;;;5097294;28;20211;-56
2022/03/19 05:41:04;;;;;;;19.38;8.27;;;2.10;99.90;;;;;;5096863;28;20200;-56
2022/03/19 05:43:31;;;;;;;19.83;8.70;;;2.10;99.90;;;;;;5097142;28;20203;-57
2022/03/19 05:45:58;;;;;;;28.10;8.15;;;2.10;99.90;;;;;;5096214;28;20228;-57
2022/03/19 05:48:25;;;;;;;17.05;8.13;;;2.10;99.90;;;;;;5096530;28;20220;-57
2022/03/19 05:50:53;;;;;;;14.70;8.57;;;2.10;99.90;;;;;;5096635;28;20197;-58
2022/03/19 05:53:21;;;;;;;17.40;8.85;;;2.10;99.90;;;;;;5096383;28;20207;-57
2022/03/19 05:55:48;;;;;;;18.77;9.90;;;2.20;99.90;;;;;;5095713;28;20216;-57
2022/03/19 05:58:15;;;;;;;17.40;7.47;;;2.20;99.90;;;;;;5095784;28;20214;-57
2022/03/19 06:00:42;;;;;;;12.15;7.95;;;2.30;99.90;;;;;;5095956;28;20201;-57
2022/03/19 06:03:09;;;;;;;22.25;8.35;;;2.30;99.90;;;;;;5096483;28;20200;-57
2022/03/19 06:05:37;;;;;;;14.15;8.63;;;2.30;99.90;;;;;;5096258;28;20221;-56
2022/03/19 06:08:04;;;;;;;17.17;7.82;;;2.40;99.90;;;;;;5110408;28;20280;-56
2022/03/19 06:10:35;;;;;;;13.38;8.13;;;2.40;99.90;;;;;;5109941;28;20270;-55
2022/03/19 06:13:03;;;;;;;24.13;8.30;;;2.50;99.90;;;;;;5100371;28;20189;-55
2022/03/19 06:15:30;;;;;;;16.38;8.20;;;2.50;99.90;;;;;;5096057;28;20228;-57
2022/03/19 06:17:58;;;;;;;16.52;8.65;;;2.60;99.90;;;;;;5096018;28;20196;-56
2022/03/19 06:20:25;;;;;;;12.55;7.93;;;2.60;99.90;;;;;;5096019;28;20231;-56
2022/03/19 06:22:52;;;;;;;13.57;7.25;;;2.70;99.90;;;;;;5095994;28;20235;-55
2022/03/19 06:25:19;;;;;;;16.08;7.07;;;2.70;99.90;;;;;;5096021;28;20255;-55
2022/03/19 06:27:48;;;;;;;19.00;8.77;;;2.70;99.90;;;;;;5095746;28;20240;-56
2022/03/19 06:30:15;;;;;;;17.25;7.70;;;2.80;99.90;;;;;;5095271;28;20687;-56
2022/03/19 06:32:42;;;;;;;13.32;7.50;;;2.80;99.90;;;;;;5094691;28;20258;-55
2022/03/19 06:35:10;;;;;;;16.33;7.95;;;2.90;99.90;;;;;;5095661;28;20227;-56
2022/03/19 06:37:37;;;;;;;17.40;7.55;;;2.90;99.90;;;;;;5094994;28;20197;-54
2022/03/19 06:40:07;;;;;;;23.20;7.32;;;3.00;99.90;;;;;;5094734;28;20220;-54
2022/03/19 06:42:35;;;;;;;12.77;6.95;;;3.00;99.90;;;;;;5095215;28;20597;-55
2022/03/19 06:45:04;;;;;;;13.20;7.78;;;3.10;99.90;;;;;;5094927;28;20231;-55
2022/03/19 06:47:31;;;;;;;16.42;7.65;;;3.20;99.90;;;;;;5095265;28;20238;-56
2022/03/19 06:50:00;;;;;;;20.10;7.28;;;3.30;99.90;;;;;;5094864;28;20225;-57
2022/03/19 06:52:28;;;;;;;11.98;6.20;;;3.40;99.90;;;;;;5095230;28;20690;-56
2022/03/19 06:54:56;;;;;;;11.45;6.22;;;3.40;99.90;;;;;;5095226;28;20243;-57
2022/03/19 06:57:23;;;;;;;14.40;7.55;;;3.50;99.90;;;;;;5095253;28;20203;-56
2022/03/19 06:59:50;;;;;;;11.23;7.15;;;3.60;99.90;;;;;;5095582;28;20273;-56
2022/03/19 07:02:19;;;;;;;13.07;6.32;;;3.60;99.90;;;;;;5095159;28;20199;-57
2022/03/19 07:04:46;;;;;;;17.23;7.50;;;3.70;99.90;;;;;;5095693;28;20259;-56
2022/03/19 07:07:13;;;;;;;9.90;5.13;;;3.80;99.90;;;;;;5094977;28;20682;-56
2022/03/19 07:09:40;;;;;;;16.95;6.63;;;3.90;99.90;;;;;;5094860;28;20612;-56
2022/03/19 07:12:11;;;;;;;9.15;5.90;;;4.00;99.90;;;;;;5094951;28;20232;-57
2022/03/19 07:14:38;;;;;;;14.00;6.05;;;4.00;99.90;;;;;;5094799;28;20262;-56
2022/03/19 07:17:05;;;;;;;16.20;6.45;;;4.20;99.90;;;;;;5094605;28;20672;-57
2022/03/19 07:19:34;;;;;;;9.20;5.45;;;4.20;99.90;;;;;;5094589;28;20699;-57
2022/03/19 07:22:01;;;;;;;11.75;5.93;;;4.30;99.90;;;;;;5094890;28;20688;-57
2022/03/19 07:24:28;;;;;;;13.32;5.95;;;4.40;99.90;;;;;;5094381;28;20224;-57
2022/03/19 07:26:55;;;;;;;11.95;6.20;;;4.50;99.90;;;;;;5095118;28;20196;-57
2022/03/19 07:29:22;;;;;;;13.88;5.65;;;4.60;99.90;;;;;;5095111;28;20228;-56
2022/03/19 07:31:49;;;;;;;14.85;6.35;;;4.60;99.90;;;;;;5094768;28;20579;-57
2022/03/19 07:34:16;;;;;;;15.30;6.00;;;4.70;99.90;;;;;;5095452;28;20231;-58
2022/03/19 07:36:45;;;;;;;14.23;6.28;;;4.80;99.90;;;;;;5095461;28;20200;-57
2022/03/19 07:39:12;;;;;;;8.15;6.10;;;4.90;99.90;;;;;;5096962;28;20216;-58
2022/03/19 07:41:48;;;;;;;17.85;5.72;;;4.90;99.90;;;;;;5097689;28;20231;-57
2022/03/19 07:44:16;;;;;;;12.85;5.93;;;5.00;99.90;;;;;;5096554;28;20222;-58
2022/03/19 07:46:43;;;;;;;12.88;5.45;;;5.00;99.90;;;;;;5101221;28;20204;-57
2022/03/19 07:49:12;;;;;;;8.15;5.07;;;5.10;99.90;;;;;;5100886;28;20219;-57
2022/03/19 07:51:39;;;;;;;11.95;5.28;;;5.10;99.90;;;;;;5103235;28;20203;-56
2022/03/19 07:54:07;;;;;;;9.77;4.60;;;5.20;99.90;;;;;;5105232;28;20231;-54
2022/03/19 07:56:34;;;;;;;13.20;4.63;;;5.30;99.90;;;;;;5107149;28;20207;-56
2022/03/19 07:59:02;;;;;;;13.23;4.82;;;5.40;99.90;;;;;;5112464;28;20196;-55
2022/03/19 08:01:29;;;;;;;8.23;4.25;;;5.50;99.90;;;;;;5112802;28;20259;-55
2022/03/19 08:03:56;;;;;;;13.55;4.82;;;5.50;99.90;;;;;;5105074;28;20200;-56
2022/03/19 08:06:23;;;;;;;10.23;4.45;;;5.60;99.90;;;;;;5105308;28;20197;-56
2022/03/19 08:08:50;;;;;;;6.78;4.28;;;5.70;99.90;;;;;;5106733;28;20224;-56
2022/03/19 08:11:19;;;;;;;6.25;3.20;;;5.80;99.90;;;;;;5105911;28;20214;-56
2022/03/19 08:13:46;;;;;;;8.52;4.00;;;5.90;99.90;;;;;;5110386;28;20208;-55
2022/03/19 08:16:13;;;;;;;8.77;3.38;;;5.90;99.70;;;;;;5108836;28;20204;-55
2022/03/19 08:18:41;;;;;;;7.72;4.25;;;6.00;99.10;;;;;;5107545;28;20204;-57
2022/03/19 08:21:08;;;;;;;9.43;3.63;;;6.00;98.60;;;;;;5102463;28;20287;-58
2022/03/19 08:23:35;;;;;;;13.63;5.53;;;6.10;98.00;;;;;;5099441;28;20287;-55
2022/03/19 08:26:03;;;;;;;7.75;3.83;;;6.10;97.70;;;;;;5100730;28;20311;-57
2022/03/19 08:28:31;;;;;;;9.15;4.10;;;6.20;97.30;;;;;;5100844;28;20246;-55
2022/03/19 08:30:58;;;;;;;9.55;4.00;;;6.40;97.00;;;;;;5095566;28;20200;-56
2022/03/19 08:33:25;;;;;;;10.02;3.78;;;6.50;96.50;;;;;;5094210;28;20254;-55
2022/03/19 08:35:53;;;;;;;6.82;3.75;;;6.60;95.90;;;;;;5095143;28;20227;-57
2022/03/19 08:41:01;;;;;;;9.90;4.00;;;6.60;94.30;;;;;;5052277;28;20200;-55
2022/03/19 08:43:28;;;;;;;10.27;4.35;;;6.60;93.80;;;;;;5098487;28;20197;-56
2022/03/19 08:45:56;;;;;;;7.38;3.72;;;6.60;93.90;;;;;;5099661;28;20283;-56
2022/03/19 08:48:23;;;;;;;8.07;4.30;;;6.60;93.60;;;;;;5099868;28;20234;-55
2022/03/19 08:50:51;;;;;;;8.23;3.30;;;6.70;93.40;;;;;;5101890;28;20205;-56
2022/03/19 08:53:19;;;;;;;7.88;3.60;;;6.90;93.10;;;;;;5101709;28;20205;-55
2022/03/19 08:55:47;;;;;;;9.63;3.60;;;7.00;92.70;;;;;;5106136;28;20220;-55
2022/03/19 08:58:15;;;;;;;10.98;3.55;;;7.00;92.10;;;;;;5104624;28;20230;-54
2022/03/19 09:00:42;;;;;;;8.35;3.60;;;7.10;91.90;;;;;;5098638;28;20291;-56
2022/03/19 09:03:12;;;;;;;10.20;4.25;;;7.10;91.70;;;;;;5099812;28;20612;-55
2022/03/19 09:05:39;;;;;;;5.78;3.30;;;7.20;91.60;;;;;;5099283;28;20221;-58
2022/03/19 09:08:07;;;;;;;7.53;3.80;;;7.30;91.50;;;;;;5097542;28;20204;-56
2022/03/19 09:10:34;;;;;;;8.98;3.22;;;7.50;90.70;;;;;;5097809;28;20220;-56
2022/03/19 09:13:01;;;;;;;13.52;3.72;;;7.60;90.00;;;;;;5097536;28;20204;-57
2022/03/19 09:15:28;;;;;;;8.43;3.17;;;7.70;89.30;;;;;;5097645;28;20220;-57
2022/03/19 09:17:55;;;;;;;6.93;2.72;;;7.80;87.60;;;;;;5097345;28;20207;-56
2022/03/19 09:20:24;;;;;;;9.52;3.50;;;7.80;86.90;;;;;;5097024;28;20667;-56
2022/03/19 09:22:51;;;;;;;8.68;3.17;;;7.90;85.10;;;;;;5097042;28;20669;-56
2022/03/19 09:25:18;;;;;;;10.00;3.72;;;7.80;84.20;;;;;;5096703;28;20228;-56
2022/03/19 09:27:45;;;;;;;8.48;2.70;;;7.90;84.40;;;;;;5096394;28;20246;-55
2022/03/19 09:30:13;;;;;;;6.93;2.90;;;8.00;83.40;;;;;;5096647;28;20220;-55
2022/03/19 09:32:40;;;;;;;5.95;2.65;;;8.00;82.80;;;;;;5096969;28;20629;-55
2022/03/19 09:35:08;;;;;;;10.23;3.90;;;8.00;82.70;;;;;;5096840;28;20220;-56
2022/03/19 09:37:36;;;;;;;5.18;2.92;;;8.10;82.90;;;;;;5097112;28;20200;-56
2022/03/19 09:40:04;;;;;;;7.78;2.92;;;8.30;81.50;;;;;;5096868;28;20193;-56
2022/03/19 09:42:32;;;;;;;5.90;2.03;;;8.30;79.10;;;;;;5096937;28;20208;-56
2022/03/19 09:45:00;;;;;;;5.55;2.08;;;8.40;77.80;;;;;;5096465;28;20315;-56
2022/03/19 09:47:27;;;;;;;6.63;1.95;;;8.50;76.30;;;;;;5097277;28;20228;-57
2022/03/19 09:49:55;;;;;;;12.18;3.05;;;8.60;75.20;;;;;;5096895;28;20216;-55
2022/03/19 09:52:26;;;;;;;6.63;2.63;;;8.70;73.90;;;;;;5098493;28;20214;-57
2022/03/19 09:54:59;;;;;;;5.13;2.35;;;8.70;73.20;;;;;;5110024;28;20236;-56
2022/03/19 09:57:27;;;;;;;12.82;2.85;;;8.90;72.60;;;;;;5110177;28;20180;-55
2022/03/19 09:59:54;;;;;;;4.97;2.20;;;9.00;71.00;;;;;;5112725;28;20260;-55
2022/03/19 10:02:21;;;;;;;5.95;2.38;;;9.20;70.30;;;;;;5097768;28;20200;-56
2022/03/19 10:04:52;;;;;;;6.82;2.42;;;9.30;70.00;;;;;;5099244;28;20225;-57
2022/03/19 10:10:11;;;;;;;9.98;2.80;;;9.30;66.50;;;;;;5097937;28;20668;-56
2022/03/19 10:12:39;;;;;;;5.80;2.08;;;9.40;66.80;;;;;;5097450;28;20188;-56
2022/03/19 10:15:09;;;;;;;4.93;1.87;;;9.50;65.00;;;;;;5101069;28;20273;-55
2022/03/19 10:17:37;;;;;;;6.28;2.30;;;9.50;63.80;;;;;;5107479;28;20492;-56
2022/03/19 10:20:07;;;;;;;7.85;2.60;;;9.40;63.10;;;;;;5109637;28;20204;-56
2022/03/19 10:22:34;;;;;;;5.47;2.40;;;9.40;62.30;;;;;;5110424;28;20196;-55
2022/03/19 10:25:04;;;;;;;7.50;2.88;;;9.50;60.90;;;;;;5112046;28;20220;-56
2022/03/19 10:27:37;;;;;;;6.25;2.30;;;9.50;60.50;;;;;;5112148;28;20205;-55
2022/03/19 10:30:15;;;;;;;6.85;2.15;;;9.50;60.50;;;;;;5110334;28;20204;-56
2022/03/19 10:32:44;;;;;;;7.72;2.17;;;9.60;60.30;;;;;;5110940;28;20642;-57
2022/03/19 10:35:29;;;;;;;5.53;2.30;;;9.70;60.00;;;;;;5110482;28;20220;-57
2022/03/19 10:37:56;;;;;;;9.18;2.60;;;9.80;59.20;;;;;;5110995;28;20200;-57
2022/03/19 10:40:36;;;;;;;9.13;3.00;;;9.90;59.80;;;;;;5110916;28;20196;-57
2022/03/19 10:43:07;;;;;;;6.17;2.87;;;10.10;58.00;;;;;;5111922;28;20194;-57
2022/03/19 10:45:34;;;;;;;6.60;3.60;;;10.30;57.90;;;;;;5112808;28;20564;-57
2022/03/19 10:48:02;;;;;;;5.33;3.20;;;10.40;57.10;;;;;;5111732;28;20443;-57
2022/03/19 10:50:29;;;;;;;3.23;2.57;;;10.50;56.40;;;;;;5109852;28;20470;-57
2022/03/19 10:53:00;;;;;;;4.40;2.30;;;10.40;55.90;;;;;;5101285;28;20453;-56
2022/03/19 10:55:27;;;;;;;4.83;2.33;;;10.50;55.90;;;;;;5100812;28;20505;-55
2022/03/19 10:57:54;;;;;;;4.00;2.03;;;10.50;55.40;;;;;;5100120;28;20446;-57
2022/03/19 11:00:23;;;;;;;7.07;2.10;;;10.60;54.70;;;;;;5101974;28;20935;-57
2022/03/19 11:02:54;;;;;;;3.60;1.63;;;10.60;54.40;;;;;;5100054;28;20450;-56
2022/03/19 11:05:23;;;;;;;7.57;2.10;;;10.70;54.30;;;;;;5110537;28;20468;-56
2022/03/19 11:07:52;;;;;;;5.63;2.23;;;10.70;53.40;;;;;;5112635;28;20457;-57
2022/03/19 11:10:20;;;;;;;3.77;2.10;;;10.70;53.20;;;;;;5109425;28;20503;-56
2022/03/19 11:12:51;;;;;;;5.83;2.27;;;10.60;52.80;;;;;;5109999;28;20539;-57
2022/03/19 11:15:20;;;;;;;4.83;2.17;;;10.60;52.90;;;;;;5109902;28;20557;-57
2022/03/19 11:17:52;;;;;;;4.03;1.40;;;10.70;52.80;;;;;;5112168;28;20466;-57
2022/03/19 11:20:20;;;;;;;8.23;2.33;;;10.80;52.10;;;;;;5107486;28;20422;-57
2022/03/19 11:22:50;;;;;;;4.57;2.20;;;10.80;51.70;;;;;;5100421;28;20473;-57
2022/03/19 11:25:27;;;;;;;4.27;2.30;;;10.90;51.50;;;;;;5097557;28;20466;-57
2022/03/19 11:27:59;;;;;;;6.23;2.50;;;11.00;50.90;;;;;;5095495;28;20426;-56
2022/03/19 11:30:28;;;;;;;7.60;2.33;;;11.10;51.10;;;;;;5095439;28;20519;-57
2022/03/19 11:33:17;;;;;;;3.97;1.73;;;11.30;50.90;;;;;;5095418;28;20449;-58
2022/03/19 11:35:48;;;;;;;2.57;1.37;;;11.30;49.40;;;;;;5095545;28;20470;-58
2022/03/19 11:38:16;;;;;;;5.67;1.97;;;11.20;49.10;;;;;;5095112;28;20434;-56
2022/03/19 11:40:46;;;;;;;5.43;1.73;;;11.20;49.30;;;;;;5095509;28;20438;-58
2022/03/19 11:43:18;;;;;;;5.20;1.47;;;11.20;49.00;;;;;;5095644;28;20879;-56
2022/03/19 11:45:57;;;;;;;3.10;1.63;;;11.20;48.70;;;;;;5096672;28;20462;-56
2022/03/19 11:48:46;;;;;;;5.70;1.97;;;11.10;48.40;;;;;;5096047;28;20431;-55
2022/03/19 11:51:32;;;;;;;7.10;2.27;;;11.10;48.60;;;;;;5095429;28;20512;-57
2022/03/19 11:54:01;;;;;;;3.70;2.17;;;11.30;48.80;;;;;;5096756;28;20426;-58
2022/03/19 11:56:49;;;;;;;4.37;1.90;;;11.40;48.70;;;;;;5095564;28;20450;-58
2022/03/19 11:59:35;;;;;;;4.13;1.60;;;11.60;48.40;;;;;;5094953;28;20477;-57
2022/03/19 12:02:08;;;;;;;6.27;1.63;;;11.60;47.70;;;;;;5095085;28;20491;-56
2022/03/19 12:04:45;;;;;;;4.20;1.60;;;11.60;47.50;;;;;;5095095;28;20529;-56
2022/03/19 12:07:14;;;;;;;4.90;1.77;;;11.50;47.60;;;;;;5095770;28;20426;-56
2022/03/19 12:10:01;;;;;;;4.60;2.10;;;11.30;47.60;;;;;;5096285;28;20463;-56
2022/03/19 12:12:28;;;;;;;4.33;1.83;;;11.10;48.00;;;;;;5097137;28;20811;-58
2022/03/19 12:14:57;;;;;;;4.30;2.20;;;11.10;48.50;;;;;;5097562;28;20862;-60
2022/03/19 12:17:31;;;;;;;3.57;1.73;;;11.00;48.60;;;;;;5099581;28;20476;-57
2022/03/19 12:20:02;;;;;;;4.90;1.83;;;11.00;48.60;;;;;;5102061;28;20479;-57
2022/03/19 12:22:31;;;;;;;4.60;1.57;;;10.90;48.50;;;;;;5098513;28;20518;-56
2022/03/19 12:25:09;;;;;;;2.77;1.57;;;10.80;48.70;;;;;;5102358;28;20465;-56
2022/03/19 12:27:37;;;;;;;2.20;1.50;;;10.80;48.70;;;;;;5103698;28;20422;-57
2022/03/19 12:30:06;;;;;;;4.60;2.13;;;10.70;48.60;;;;;;5104682;28;20509;-56
2022/03/19 12:32:45;;;;;;;4.20;1.93;;;10.90;48.60;;;;;;5105624;28;20445;-56
2022/03/19 12:35:14;;;;;;;3.93;1.97;;;11.20;48.50;;;;;;5102865;28;20462;-57
2022/03/19 12:37:48;;;;;;;4.20;3.07;;;11.60;47.70;;;;;;5100652;28;20816;-57
2022/03/19 12:40:19;;;;;;;4.60;2.37;;;11.80;46.70;;;;;;5099524;28;20524;-56
2022/03/19 12:42:51;;;;;;;5.10;2.40;;;11.80;46.60;;;;;;5099881;28;20781;-56
2022/03/19 12:45:18;;;;;;;3.70;2.20;;;11.60;47.60;;;;;;5099699;28;20454;-57
2022/03/19 12:47:50;;;;;;;5.20;3.33;;;11.40;47.40;;;;;;5098509;28;20812;-57
2022/03/19 12:50:19;;;;;;;4.70;1.97;;;11.00;47.90;;;;;;5101606;28;20463;-57
2022/03/19 12:52:47;;;;;;;3.77;2.20;;;10.90;48.50;;;;;;5113082;28;20442;-57
2022/03/19 12:55:21;;;;;;;3.10;2.00;;;10.90;48.80;;;;;;5111858;28;21084;-57
2022/03/19 12:57:56;;;;;;;4.50;2.00;;;11.00;48.80;;;;;;5102220;28;20438;-56
2022/03/19 13:00:24;;;;;;;6.20;2.00;;;11.10;48.30;;;;;;5101909;28;20836;-58
2022/03/19 13:02:51;;;;;;;4.40;1.70;;;11.00;48.10;;;;;;5100856;28;20447;-56
2022/03/19 13:05:20;;;;;;;3.53;1.63;;;11.00;48.10;;;;;;5098015;28;20462;-56
2022/03/19 13:08:05;;;;;;;2.63;1.37;;;10.90;48.00;;;;;;5097066;28;20838;-57